Time;durP1;ratioP1;P1;durP2;ratioP2;P2;SDS_P1;SDS_P2;PMS_P1;PMS_P2;Temp;Humidity;BMP_temperature;BMP_pressure;BME280_temperature;BME280_humidity;BME280_pressure;Samples;Min_cycle;Max_cycle;Signal;HPM_P1;HPM_P2
2022/01/21 00:00:16;;;;;;;15.43;2.20;;;1.50;99.90;;;;;;4958608;28;20532;-49
2022/01/21 00:02:43;;;;;;;14.63;3.47;;;1.50;99.90;;;;;;4944514;28;20069;-47
2022/01/21 00:05:10;;;;;;;20.95;3.13;;;1.90;99.90;;;;;;4962584;28;20091;-48
2022/01/21 00:07:38;;;;;;;22.17;3.70;;;1.90;99.90;;;;;;4962500;28;20042;-48
2022/01/21 00:10:05;;;;;;;10.52;2.05;;;1.90;99.90;;;;;;4961521;28;20712;-48
2022/01/21 00:12:32;;;;;;;13.05;2.63;;;1.90;99.90;;;;;;4965665;28;20050;-50
2022/01/21 00:15:06;;;;;;;17.88;3.03;;;1.80;99.90;;;;;;4962817;28;20070;-52
2022/01/21 00:17:32;;;;;;;19.08;2.78;;;1.70;99.90;;;;;;4964386;28;20134;-51
2022/01/21 00:31:04;;;;;;;13.57;2.67;;;1.60;99.90;;;;;;4974440;28;20142;-47
2022/01/21 00:33:30;;;;;;;17.92;3.00;;;1.60;99.90;;;;;;4970083;28;20230;-47
2022/01/21 00:35:57;;;;;;;19.98;3.00;;;1.60;99.90;;;;;;4985485;28;20396;-50
2022/01/21 00:38:25;;;;;;;17.42;2.83;;;1.60;99.90;;;;;;4964325;28;20623;-47
2022/01/21 00:40:51;;;;;;;14.40;2.50;;;1.50;99.90;;;;;;4980945;28;20058;-48
2022/01/21 00:43:30;;;;;;;18.58;3.65;;;1.60;99.90;;;;;;4960984;28;20535;-48
2022/01/21 00:45:56;;;;;;;18.52;2.72;;;1.50;99.90;;;;;;4977042;28;20050;-47
2022/01/21 00:48:22;;;;;;;17.88;3.67;;;1.50;99.90;;;;;;4974110;28;20054;-47
2022/01/21 00:50:47;;;;;;;14.45;2.85;;;1.50;99.90;;;;;;4978176;28;20572;-47
2022/01/21 00:53:14;;;;;;;19.92;3.92;;;1.50;99.90;;;;;;4969066;28;20165;-48
2022/01/21 00:55:40;;;;;;;18.38;3.58;;;1.50;99.90;;;;;;4965612;28;20070;-47
2022/01/21 00:58:06;;;;;;;18.95;2.67;;;1.50;99.90;;;;;;4980265;28;20058;-47
2022/01/21 01:00:33;;;;;;;12.20;3.88;;;1.60;99.90;;;;;;4964715;28;20143;-47
2022/01/21 01:03:00;;;;;;;16.42;2.67;;;1.60;99.90;;;;;;5025437;28;20562;-50
2022/01/21 01:05:26;;;;;;;12.10;2.60;;;1.70;99.90;;;;;;5024862;28;20447;-47
2022/01/21 01:07:53;;;;;;;14.48;2.33;;;1.70;99.90;;;;;;5043500;28;20051;-48
2022/01/21 01:10:34;;;;;;;15.75;2.00;;;1.70;99.90;;;;;;5042967;28;20079;-49
2022/01/21 01:21:21;;;;;;;11.57;1.95;;;1.70;99.90;;;;;;5043893;28;20582;-50
2022/01/21 01:29:13;;;;;;;15.40;2.35;;;1.70;99.90;;;;;;5037338;28;20053;-48
2022/01/21 01:31:38;;;;;;;13.52;2.55;;;1.70;99.90;;;;;;5041913;28;20506;-47
2022/01/21 01:34:04;;;;;;;8.85;1.77;;;1.70;99.90;;;;;;5024779;28;20049;-48
2022/01/21 01:36:30;;;;;;;10.05;1.80;;;1.80;99.90;;;;;;5023850;28;20052;-47
2022/01/21 01:39:12;;;;;;;14.38;2.42;;;1.80;99.90;;;;;;5022627;28;20060;-48
2022/01/21 01:41:59;;;;;;;14.35;2.05;;;1.80;99.90;;;;;;5042271;28;20522;-49
2022/01/21 01:49:54;;;;;;;17.20;3.30;;;1.70;99.90;;;;;;5039904;28;20053;-48
2022/01/21 01:52:19;;;;;;;16.67;2.30;;;1.70;99.90;;;;;;5023194;28;20057;-47
2022/01/21 01:54:54;;;;;;;11.43;2.47;;;1.60;99.90;;;;;;5041719;28;20137;-47
2022/01/21 01:57:19;;;;;;;12.15;1.95;;;1.60;99.90;;;;;;5038670;28;20045;-48
2022/01/21 01:59:45;;;;;;;9.45;2.00;;;1.60;99.90;;;;;;5022821;28;20277;-48
2022/01/21 02:02:13;;;;;;;11.55;1.77;;;1.60;99.90;;;;;;5040260;28;20052;-47
2022/01/21 02:04:42;;;;;;;11.65;1.88;;;1.60;99.90;;;;;;5041900;28;20053;-48
2022/01/21 02:07:08;;;;;;;10.88;2.28;;;1.60;99.90;;;;;;5040119;28;20395;-50
2022/01/21 02:09:35;;;;;;;13.18;2.35;;;1.50;99.90;;;;;;5022869;28;20052;-47
2022/01/21 02:12:01;;;;;;;9.88;1.70;;;1.50;99.90;;;;;;5023333;28;20131;-48
2022/01/21 02:14:31;;;;;;;15.55;2.47;;;1.60;99.90;;;;;;5022629;28;20053;-47
2022/01/21 02:22:15;;;;;;;15.10;2.38;;;1.60;99.90;;;;;;5042366;28;20063;-48
2022/01/21 02:24:59;;;;;;;18.33;2.17;;;1.50;99.90;;;;;;5042111;28;20088;-52
2022/01/21 02:27:25;;;;;;;10.90;1.60;;;1.40;99.90;;;;;;5034934;28;20140;-51
2022/01/21 02:29:54;;;;;;;13.27;2.00;;;1.40;99.90;;;;;;5041289;28;20041;-51
2022/01/21 02:32:21;;;;;;;11.35;1.77;;;1.40;99.90;;;;;;5037447;28;20118;-48
2022/01/21 02:34:48;;;;;;;14.32;2.30;;;1.30;99.90;;;;;;5044784;28;20052;-48
2022/01/21 02:37:17;;;;;;;11.65;1.88;;;1.20;99.90;;;;;;5023066;28;20575;-48
2022/01/21 02:39:43;;;;;;;14.00;2.40;;;1.20;99.90;;;;;;5039363;28;20478;-47
2022/01/21 02:42:09;;;;;;;21.90;2.95;;;1.20;99.90;;;;;;5040656;28;20347;-47
2022/01/21 02:44:35;;;;;;;13.30;1.95;;;1.10;99.90;;;;;;5041418;28;20411;-47
2022/01/21 02:47:04;;;;;;;11.18;1.90;;;1.10;99.90;;;;;;5022553;28;20057;-48
2022/01/21 02:49:29;;;;;;;13.70;1.98;;;1.10;99.90;;;;;;5040307;28;20053;-49
2022/01/21 02:51:57;;;;;;;13.63;2.03;;;1.10;99.90;;;;;;5040141;28;20051;-47
2022/01/21 02:54:23;;;;;;;13.00;2.28;;;1.10;99.90;;;;;;5040001;28;20463;-48
2022/01/21 02:56:50;;;;;;;16.17;2.28;;;1.10;99.90;;;;;;5005922;28;20134;-48
2022/01/21 02:59:16;;;;;;;10.52;1.75;;;1.00;99.90;;;;;;5040277;28;20052;-48
2022/01/21 03:01:44;;;;;;;16.63;2.20;;;1.10;99.90;;;;;;5022623;28;20415;-48
2022/01/21 03:04:15;;;;;;;17.25;2.20;;;1.00;99.90;;;;;;5023532;28;20045;-48
2022/01/21 03:06:41;;;;;;;11.18;2.15;;;1.00;99.90;;;;;;5041289;28;20057;-48
2022/01/21 03:09:07;;;;;;;14.02;1.80;;;1.10;99.90;;;;;;5022462;28;20052;-48
2022/01/21 03:11:34;;;;;;;13.70;2.15;;;1.00;99.90;;;;;;5022659;28;20048;-49
2022/01/21 03:14:00;;;;;;;19.63;2.90;;;1.00;99.90;;;;;;5040509;28;20053;-47
2022/01/21 03:16:26;;;;;;;11.05;1.98;;;1.00;99.90;;;;;;5041659;28;20074;-48
2022/01/21 03:18:52;;;;;;;20.02;2.47;;;0.90;99.90;;;;;;5046175;28;20052;-48
2022/01/21 03:21:18;;;;;;;24.08;3.85;;;1.00;99.90;;;;;;5041934;28;20067;-48
2022/01/21 03:23:49;;;;;;;17.60;2.40;;;0.90;99.90;;;;;;5023086;28;20049;-48
2022/01/21 03:26:17;;;;;;;16.02;2.25;;;0.90;99.90;;;;;;5037793;28;20127;-47
2022/01/21 03:28:51;;;;;;;14.10;2.17;;;0.90;99.90;;;;;;5041171;28;20045;-48
2022/01/21 03:31:17;;;;;;;13.20;2.00;;;0.90;99.90;;;;;;5040819;28;20052;-49
2022/01/21 03:33:44;;;;;;;19.95;3.38;;;0.90;99.90;;;;;;5025720;28;20407;-53
2022/01/21 03:36:10;;;;;;;10.57;1.77;;;0.90;99.90;;;;;;5044782;28;20175;-49
2022/01/21 03:38:39;;;;;;;12.30;2.30;;;0.80;99.90;;;;;;5040139;28;20041;-51
2022/01/21 03:41:05;;;;;;;11.40;1.55;;;0.90;99.90;;;;;;5040417;28;20490;-49
2022/01/21 03:43:32;;;;;;;9.75;1.30;;;0.90;99.90;;;;;;5022609;28;20049;-49
2022/01/21 03:45:58;;;;;;;11.98;2.28;;;0.90;99.90;;;;;;5040891;28;20539;-50
2022/01/21 03:48:25;;;;;;;10.63;1.80;;;0.90;99.90;;;;;;5040133;28;20049;-49
2022/01/21 03:50:51;;;;;;;9.68;1.50;;;0.80;99.90;;;;;;5018392;28;20112;-47
2022/01/21 03:53:17;;;;;;;10.52;1.60;;;0.80;99.90;;;;;;5020023;28;20441;-48
2022/01/21 03:55:43;;;;;;;6.28;1.65;;;0.80;99.90;;;;;;5022251;28;20048;-48
2022/01/21 03:58:10;;;;;;;13.02;1.90;;;0.90;99.90;;;;;;5019033;28;20050;-51
2022/01/21 04:00:46;;;;;;;10.77;1.40;;;0.80;99.90;;;;;;5018569;28;20504;-51
2022/01/21 04:03:12;;;;;;;10.50;1.60;;;0.90;99.90;;;;;;5019203;28;20057;-46
2022/01/21 04:05:39;;;;;;;9.98;1.38;;;0.80;99.90;;;;;;5018298;28;20536;-48
2022/01/21 04:08:06;;;;;;;12.18;2.13;;;0.90;99.90;;;;;;5020605;28;20051;-48
2022/01/21 04:10:35;;;;;;;14.18;1.48;;;1.00;99.90;;;;;;5017970;28;20053;-47
2022/01/21 04:13:02;;;;;;;11.98;2.00;;;0.90;99.90;;;;;;5021236;28;20064;-48
2022/01/21 04:15:28;;;;;;;12.48;2.55;;;1.00;99.90;;;;;;5020704;28;20041;-47
2022/01/21 04:17:54;;;;;;;12.70;1.85;;;1.10;99.90;;;;;;5022310;28;20080;-48
2022/01/21 04:20:20;;;;;;;11.48;2.50;;;1.10;99.90;;;;;;5031399;28;20591;-47
2022/01/21 04:22:45;;;;;;;14.35;1.70;;;1.10;99.90;;;;;;5023881;28;20049;-49
2022/01/21 04:25:12;;;;;;;14.48;2.40;;;1.20;99.90;;;;;;5023607;28;20057;-48
2022/01/21 04:27:38;;;;;;;15.68;2.70;;;1.20;99.90;;;;;;5023015;28;20045;-49
2022/01/21 04:30:06;;;;;;;11.90;2.58;;;1.30;99.90;;;;;;5019193;28;20133;-47
2022/01/21 04:32:32;;;;;;;13.25;2.33;;;1.40;99.90;;;;;;5023545;28;20045;-47
2022/01/21 04:34:58;;;;;;;14.70;2.03;;;1.40;99.90;;;;;;5026778;28;20099;-47
2022/01/21 04:37:24;;;;;;;11.43;1.73;;;1.40;99.90;;;;;;5023122;28;20116;-47
2022/01/21 04:40:04;;;;;;;7.70;1.65;;;1.40;99.90;;;;;;5026160;28;20984;-47
2022/01/21 04:47:58;;;;;;;10.05;1.73;;;1.20;99.90;;;;;;5015235;28;20054;-48
2022/01/21 04:50:26;;;;;;;17.88;2.45;;;1.20;99.90;;;;;;5032094;28;20057;-47
2022/01/21 04:52:51;;;;;;;9.20;2.10;;;1.20;99.90;;;;;;5024911;28;20057;-47
2022/01/21 04:55:17;;;;;;;6.65;1.73;;;1.20;99.90;;;;;;5044282;28;20161;-47
2022/01/21 04:57:43;;;;;;;12.60;2.38;;;1.20;99.90;;;;;;5041587;28;20067;-49
2022/01/21 05:00:09;;;;;;;10.63;2.08;;;1.20;99.90;;;;;;5042479;28;20056;-50
2022/01/21 05:02:36;;;;;;;16.77;2.40;;;1.10;99.90;;;;;;5041738;28;20041;-48
2022/01/21 05:05:03;;;;;;;12.80;2.00;;;1.10;99.90;;;;;;5042684;28;20490;-47
2022/01/21 05:07:33;;;;;;;16.98;3.13;;;1.10;99.90;;;;;;5042640;28;20048;-48
2022/01/21 05:09:58;;;;;;;14.65;2.13;;;1.10;99.90;;;;;;5042275;28;20092;-47
2022/01/21 05:12:26;;;;;;;15.68;2.70;;;1.10;99.90;;;;;;5043420;28;20136;-48
2022/01/21 05:17:25;;;;;;;11.23;1.83;;;1.20;99.90;;;;;;5041164;28;20677;-47
2022/01/21 05:19:52;;;;;;;15.38;2.25;;;1.30;99.90;;;;;;5041208;28;20049;-48
2022/01/21 05:22:18;;;;;;;9.43;1.85;;;1.30;99.90;;;;;;5024312;28;20522;-47
2022/01/21 05:24:44;;;;;;;23.02;3.20;;;1.30;99.90;;;;;;5042771;28;20045;-48
2022/01/21 05:27:12;;;;;;;15.35;2.83;;;1.30;99.90;;;;;;5036667;28;20044;-49
2022/01/21 05:29:38;;;;;;;14.02;1.88;;;1.40;99.90;;;;;;5037059;28;20067;-49
2022/01/21 05:32:05;;;;;;;19.45;2.22;;;1.30;99.90;;;;;;5027784;28;20053;-47
2022/01/21 05:34:32;;;;;;;7.70;1.55;;;1.30;99.90;;;;;;5042134;28;20419;-47
2022/01/21 05:36:58;;;;;;;11.43;2.40;;;1.30;99.90;;;;;;5032694;28;20496;-47
2022/01/21 05:39:24;;;;;;;12.65;1.83;;;1.30;99.90;;;;;;5041586;28;20087;-48
2022/01/21 05:41:51;;;;;;;9.40;1.70;;;1.20;99.90;;;;;;5043106;28;20040;-49
2022/01/21 05:47:09;;;;;;;10.77;1.48;;;1.30;99.90;;;;;;4962237;28;20098;-50
2022/01/21 05:49:37;;;;;;;12.75;1.77;;;1.40;99.90;;;;;;4953996;28;20094;-53
2022/01/21 05:52:09;;;;;;;11.82;1.98;;;1.40;99.90;;;;;;4955359;28;20599;-49
2022/01/21 05:54:36;;;;;;;8.97;1.33;;;1.40;99.90;;;;;;4954853;28;20091;-48
2022/01/21 05:57:05;;;;;;;17.67;2.28;;;1.50;99.90;;;;;;4971640;28;20658;-49
2022/01/21 05:59:31;;;;;;;9.95;1.77;;;1.60;99.90;;;;;;4950787;28;20660;-50
2022/01/21 06:01:57;;;;;;;12.27;2.08;;;1.50;99.90;;;;;;4943015;28;20526;-48
2022/01/21 06:04:23;;;;;;;11.48;2.50;;;1.60;99.90;;;;;;4951671;28;20170;-48
2022/01/21 06:06:49;;;;;;;14.13;2.08;;;1.60;99.90;;;;;;4960434;28;20138;-47
2022/01/21 06:09:14;;;;;;;12.88;2.60;;;1.50;99.90;;;;;;4960656;28;20168;-48
2022/01/21 06:11:40;;;;;;;11.50;2.50;;;1.50;99.90;;;;;;4961096;28;20481;-48
2022/01/21 06:14:07;;;;;;;15.48;1.85;;;1.50;99.90;;;;;;4956672;28;20054;-51
2022/01/21 06:16:38;;;;;;;11.02;1.67;;;1.40;99.90;;;;;;4958789;28;20122;-50
2022/01/21 06:19:04;;;;;;;16.65;2.25;;;1.50;99.90;;;;;;4964723;28;20054;-47
2022/01/21 06:21:30;;;;;;;11.98;1.85;;;1.40;99.90;;;;;;4949378;28;20687;-48
2022/01/21 06:23:56;;;;;;;10.07;1.55;;;1.30;99.90;;;;;;4980409;28;20661;-51
2022/01/21 06:26:23;;;;;;;16.90;2.78;;;1.30;99.90;;;;;;5039808;28;20128;-49
2022/01/21 06:28:48;;;;;;;9.52;1.50;;;1.40;99.90;;;;;;5040440;28;20060;-49
2022/01/21 06:31:15;;;;;;;12.98;3.00;;;1.40;99.90;;;;;;5041079;28;20648;-49
2022/01/21 06:33:40;;;;;;;11.38;1.85;;;1.30;99.90;;;;;;5042277;28;20049;-47
2022/01/21 06:36:06;;;;;;;10.68;1.70;;;1.30;99.90;;;;;;5052243;28;20064;-48
2022/01/21 06:38:32;;;;;;;12.20;2.00;;;1.30;99.90;;;;;;5021640;28;20664;-47
2022/01/21 06:40:58;;;;;;;11.95;2.20;;;1.20;99.90;;;;;;5041010;28;20063;-47
2022/01/21 06:43:23;;;;;;;13.27;1.83;;;1.20;99.90;;;;;;5023959;28;20056;-48
2022/01/21 06:45:49;;;;;;;10.65;2.45;;;1.20;99.90;;;;;;5041576;28;20049;-50
2022/01/21 06:48:15;;;;;;;14.10;2.03;;;1.10;99.90;;;;;;5041084;28;20518;-49
2022/01/21 06:50:42;;;;;;;10.90;1.92;;;1.10;99.90;;;;;;5041712;28;20079;-48
2022/01/21 06:53:11;;;;;;;13.45;2.05;;;1.10;99.90;;;;;;5044922;28;20083;-49
2022/01/21 06:55:37;;;;;;;13.43;2.90;;;1.00;99.90;;;;;;5043647;28;20083;-52
2022/01/21 06:58:04;;;;;;;9.50;2.03;;;1.00;99.90;;;;;;5040489;28;20964;-50
2022/01/21 07:00:30;;;;;;;16.30;2.22;;;0.90;99.90;;;;;;5040152;28;20134;-47
2022/01/21 07:02:56;;;;;;;14.52;2.20;;;0.90;99.90;;;;;;5040083;28;20195;-49
2022/01/21 07:05:25;;;;;;;13.98;2.03;;;0.90;99.90;;;;;;5041696;28;20079;-48
2022/01/21 07:07:51;;;;;;;13.88;3.03;;;0.90;99.90;;;;;;5040333;28;20040;-46
2022/01/21 07:10:18;;;;;;;15.82;2.30;;;0.90;99.90;;;;;;5040503;28;20574;-47
2022/01/21 07:12:44;;;;;;;19.77;2.70;;;1.00;99.90;;;;;;5040672;28;20414;-47
2022/01/21 07:15:15;;;;;;;14.48;1.80;;;0.90;99.90;;;;;;5041438;28;20052;-48
2022/01/21 07:17:42;;;;;;;18.33;2.70;;;0.90;99.90;;;;;;5038966;28;20088;-48
2022/01/21 07:20:09;;;;;;;11.30;2.03;;;0.90;99.90;;;;;;5047806;28;20506;-47
2022/01/21 07:22:35;;;;;;;11.95;3.03;;;1.00;99.90;;;;;;5041005;28;20045;-47
2022/01/21 07:25:01;;;;;;;12.10;2.53;;;0.90;99.90;;;;;;5042305;28;20051;-48
2022/01/21 07:27:26;;;;;;;14.35;2.22;;;1.00;99.90;;;;;;5035156;28;20517;-47
2022/01/21 07:29:52;;;;;;;12.40;2.10;;;0.90;99.90;;;;;;5036195;28;20161;-49
2022/01/21 07:32:23;;;;;;;19.88;2.55;;;1.00;99.90;;;;;;5042836;28;20049;-48
2022/01/21 07:34:52;;;;;;;14.93;2.33;;;1.00;99.90;;;;;;5046647;28;20086;-47
2022/01/21 07:37:19;;;;;;;12.38;2.25;;;1.10;99.90;;;;;;5039651;28;20533;-48
2022/01/21 07:39:44;;;;;;;21.60;3.35;;;1.00;99.90;;;;;;5040128;28;20075;-48
2022/01/21 07:42:10;;;;;;;13.38;2.65;;;1.10;99.90;;;;;;5039975;28;20140;-47
2022/01/21 07:44:36;;;;;;;15.35;2.42;;;1.00;99.90;;;;;;5022610;28;20045;-48
2022/01/21 07:47:03;;;;;;;17.40;2.42;;;1.00;99.90;;;;;;5040078;28;20107;-48
2022/01/21 07:49:29;;;;;;;16.23;2.85;;;1.00;99.90;;;;;;5044104;28;20126;-48
2022/01/21 07:51:54;;;;;;;15.82;2.60;;;1.00;99.90;;;;;;5044500;28;20510;-48
2022/01/21 07:54:20;;;;;;;14.77;2.67;;;0.90;99.90;;;;;;5044984;28;20045;-50
2022/01/21 07:56:46;;;;;;;20.75;2.80;;;0.90;99.90;;;;;;5029421;28;20059;-50
2022/01/21 07:59:13;;;;;;;10.82;2.47;;;0.90;99.90;;;;;;5046270;28;20052;-49
2022/01/21 08:01:39;;;;;;;16.27;3.17;;;0.90;99.90;;;;;;5007415;28;20057;-50
2022/01/21 08:04:06;;;;;;;8.98;2.20;;;0.90;99.90;;;;;;5019447;28;20057;-49
2022/01/21 08:06:33;;;;;;;13.57;2.50;;;0.90;99.90;;;;;;5044862;28;20388;-50
2022/01/21 08:09:24;;;;;;;12.52;2.78;;;0.90;99.90;;;;;;5029195;28;20057;-51
2022/01/21 08:11:55;;;;;;;19.83;3.88;;;0.80;99.90;;;;;;5048472;28;20065;-47
2022/01/21 08:14:26;;;;;;;17.98;2.60;;;0.90;99.90;;;;;;5049765;28;20045;-47
2022/01/21 08:16:54;;;;;;;17.15;2.67;;;0.90;99.90;;;;;;5049119;28;20044;-47
2022/01/21 08:19:19;;;;;;;18.35;3.30;;;1.10;99.90;;;;;;5049351;28;20132;-48
2022/01/21 08:21:45;;;;;;;14.10;2.40;;;1.20;99.90;;;;;;5046929;28;20053;-48
2022/01/21 08:24:16;;;;;;;15.68;3.08;;;1.40;99.90;;;;;;5047816;28;20052;-48
2022/01/21 08:26:45;;;;;;;20.70;4.63;;;1.60;99.90;;;;;;5047711;28;20047;-47
2022/01/21 08:29:12;;;;;;;19.83;4.45;;;1.90;99.90;;;;;;5048866;28;20084;-48
2022/01/21 08:31:38;;;;;;;19.48;3.60;;;2.00;99.90;;;;;;5048764;28;20312;-47
2022/01/21 08:34:05;;;;;;;17.08;4.47;;;2.20;99.90;;;;;;5038778;28;20457;-49
2022/01/21 08:36:31;;;;;;;14.70;3.45;;;2.30;99.90;;;;;;5019925;28;20044;-50
2022/01/21 08:38:57;;;;;;;21.15;2.70;;;2.50;99.90;;;;;;5043552;28;20045;-49
2022/01/21 08:41:22;;;;;;;23.92;3.65;;;2.50;99.90;;;;;;5043079;28;20036;-49
2022/01/21 08:43:48;;;;;;;22.40;3.30;;;2.60;99.90;;;;;;5044768;28;20108;-48
2022/01/21 08:46:22;;;;;;;16.88;4.25;;;2.60;99.90;;;;;;5031222;28;20464;-48
2022/01/21 08:49:09;;;;;;;;;;;2.70;99.90;;;;;;5023275;28;20083;-47
2022/01/21 08:51:51;;;;;;;15.55;2.47;;;2.70;99.90;;;;;;5037076;28;19925;-47
2022/01/21 08:54:18;;;;;;;19.83;3.13;;;2.80;99.90;;;;;;5045713;28;20049;-48
2022/01/21 08:56:45;;;;;;;15.65;2.92;;;2.80;99.90;;;;;;5048157;28;20049;-48
2022/01/21 08:59:10;;;;;;;24.95;3.75;;;2.90;99.90;;;;;;5047202;28;20175;-49
2022/01/21 09:01:36;;;;;;;26.73;3.10;;;3.00;99.90;;;;;;5043668;28;20523;-49
2022/01/21 09:04:02;;;;;;;19.42;2.70;;;3.00;99.90;;;;;;5043358;28;20865;-49
2022/01/21 09:06:31;;;;;;;18.40;3.40;;;3.00;99.90;;;;;;5048816;28;20692;-50
2022/01/21 09:08:57;;;;;;;18.00;2.75;;;3.10;99.90;;;;;;5045312;28;20075;-50
2022/01/21 09:11:23;;;;;;;25.17;2.75;;;3.10;99.90;;;;;;5025805;28;20106;-51
2022/01/21 09:13:53;;;;;;;18.58;4.07;;;3.10;99.90;;;;;;5043048;28;20086;-47
2022/01/21 09:16:19;;;;;;;19.75;4.13;;;3.20;99.90;;;;;;5042393;28;20045;-48
2022/01/21 09:18:48;;;;;;;16.63;2.78;;;3.20;99.90;;;;;;5042014;28;20053;-48
2022/01/21 09:21:16;;;;;;;21.05;3.95;;;3.30;99.90;;;;;;5042720;28;20110;-50
2022/01/21 09:23:42;;;;;;;16.75;3.00;;;3.40;99.90;;;;;;5045118;28;20143;-47
2022/01/21 09:26:08;;;;;;;20.35;3.42;;;3.40;99.90;;;;;;5036435;28;20064;-49
2022/01/21 09:28:35;;;;;;;13.02;2.95;;;3.50;99.90;;;;;;5029053;28;20091;-47
2022/01/21 09:31:01;;;;;;;20.45;3.47;;;3.50;99.90;;;;;;5037801;28;20063;-48
2022/01/21 09:33:27;;;;;;;23.40;4.47;;;3.50;99.90;;;;;;5027815;28;20057;-50
2022/01/21 09:35:53;;;;;;;18.20;2.70;;;3.50;99.90;;;;;;5042072;28;20049;-48
2022/01/21 09:38:19;;;;;;;17.98;3.45;;;3.60;99.90;;;;;;5041329;28;20118;-49
2022/01/21 09:40:49;;;;;;;18.92;3.05;;;3.50;99.90;;;;;;5041637;28;20081;-48
2022/01/21 09:43:16;;;;;;;23.65;4.13;;;3.60;99.90;;;;;;5041449;28;20048;-50
2022/01/21 09:45:45;;;;;;;21.63;3.28;;;3.70;99.90;;;;;;5041117;28;20587;-49
2022/01/21 09:48:13;;;;;;;21.48;3.40;;;3.70;99.90;;;;;;5040446;28;20045;-48
2022/01/21 09:50:40;;;;;;;19.50;3.50;;;3.80;99.90;;;;;;5042734;28;20049;-48
2022/01/21 09:53:06;;;;;;;21.10;4.20;;;3.90;99.90;;;;;;5041450;28;20052;-47
2022/01/21 09:55:32;;;;;;;18.55;3.45;;;3.90;99.90;;;;;;5045909;28;20080;-48
2022/01/21 09:57:58;;;;;;;22.33;4.35;;;4.10;99.90;;;;;;5023476;28;20464;-47
2022/01/21 10:00:27;;;;;;;17.75;4.40;;;4.10;99.90;;;;;;5041486;28;20458;-48
2022/01/21 10:02:53;;;;;;;26.75;3.80;;;4.20;99.90;;;;;;5042325;28;20057;-47
2022/01/21 10:05:19;;;;;;;17.85;3.70;;;4.20;99.90;;;;;;5041142;28;20045;-48
2022/01/21 10:07:47;;;;;;;22.48;3.67;;;4.10;99.90;;;;;;5046932;28;20134;-51
2022/01/21 10:10:13;;;;;;;19.27;3.65;;;4.20;99.90;;;;;;5043075;28;20501;-48
2022/01/21 10:12:43;;;;;;;14.00;3.15;;;4.40;99.90;;;;;;5042115;28;20049;-48
2022/01/21 10:15:10;;;;;;;21.40;2.78;;;4.60;99.90;;;;;;5044296;28;20045;-49
2022/01/21 10:17:36;;;;;;;13.88;2.90;;;4.80;99.90;;;;;;5024013;28;20044;-51
2022/01/21 10:20:18;;;;;;;16.10;3.03;;;5.00;99.90;;;;;;5031968;28;20130;-50
2022/01/21 10:23:08;;;;;;;18.13;2.97;;;5.20;99.90;;;;;;5047160;28;20209;-48
2022/01/21 10:25:37;;;;;;;17.95;3.42;;;5.20;99.90;;;;;;5027390;28;20060;-48
2022/01/21 10:28:17;;;;;;;14.57;2.88;;;5.30;99.90;;;;;;5044142;28;20486;-50
2022/01/21 10:30:48;;;;;;;20.40;3.40;;;5.30;99.90;;;;;;5043345;28;20048;-48
2022/01/21 10:33:26;;;;;;;21.48;3.55;;;5.50;99.90;;;;;;5021864;28;20056;-48
2022/01/21 10:36:27;;;;;;;20.08;2.90;;;5.60;99.90;;;;;;5044184;28;20048;-49
2022/01/21 10:39:08;;;;;;;15.50;2.88;;;5.70;99.90;;;;;;5026728;28;20044;-48
2022/01/21 10:41:44;;;;;;;13.13;2.60;;;5.70;99.90;;;;;;5009736;28;20083;-48
2022/01/21 10:44:14;;;;;;;21.98;2.60;;;5.80;99.90;;;;;;5044817;28;20057;-47
2022/01/21 10:46:42;;;;;;;17.38;3.05;;;5.90;99.90;;;;;;5026380;28;20049;-47
2022/01/21 10:49:11;;;;;;;21.17;3.80;;;5.90;99.90;;;;;;5045389;28;20106;-48
2022/01/21 10:51:40;;;;;;;17.70;2.58;;;6.00;99.90;;;;;;5044189;28;20088;-47
2022/01/21 10:54:21;;;;;;;16.45;2.72;;;6.00;99.90;;;;;;5044467;28;20518;-48
2022/01/21 10:57:07;;;;;;;20.60;3.38;;;6.10;99.90;;;;;;5046616;28;20056;-48
2022/01/21 11:00:02;;;;;;;10.65;2.38;;;6.10;99.90;;;;;;5043646;28;20048;-48
2022/01/21 11:02:46;;;;;;;17.77;3.58;;;6.20;99.90;;;;;;5013047;28;20052;-50
2022/01/21 11:05:23;;;;;;;15.10;2.40;;;6.20;99.90;;;;;;5023344;28;20105;-48
2022/01/21 11:07:55;;;;;;;19.05;3.55;;;6.20;99.90;;;;;;5041040;28;20410;-48
2022/01/21 11:10:46;;;;;;;16.67;3.28;;;6.30;99.90;;;;;;5043102;28;20059;-48
2022/01/21 11:13:20;;;;;;;13.65;2.83;;;6.30;99.90;;;;;;5040548;28;20562;-48
2022/01/21 11:15:55;;;;;;;13.25;2.63;;;6.30;99.90;;;;;;5046970;28;20376;-51
2022/01/21 11:18:26;;;;;;;19.13;3.95;;;6.30;99.90;;;;;;5046491;28;20045;-51
2022/01/21 11:20:59;;;;;;;13.02;2.67;;;6.30;99.90;;;;;;5021343;28;20083;-48
2022/01/21 11:23:28;;;;;;;16.73;3.35;;;6.30;99.90;;;;;;5051449;28;20143;-49
2022/01/21 11:25:57;;;;;;;18.15;2.67;;;6.30;99.90;;;;;;5049604;28;20052;-48
2022/01/21 11:28:50;;;;;;;12.63;2.67;;;6.30;99.90;;;;;;5056912;28;20134;-51
2022/01/21 11:31:18;;;;;;;17.02;2.45;;;6.30;99.90;;;;;;5043620;28;20523;-51
2022/01/21 11:33:49;;;;;;;14.32;2.72;;;6.40;99.90;;;;;;5050072;28;20041;-50
2022/01/21 11:36:16;;;;;;;15.38;2.80;;;6.40;99.90;;;;;;5050392;28;20562;-50
2022/01/21 11:38:44;;;;;;;15.60;2.30;;;6.50;99.90;;;;;;5030896;28;20073;-48
2022/01/21 11:41:13;;;;;;;17.58;3.58;;;6.60;99.90;;;;;;5047546;28;20056;-48
2022/01/21 11:43:50;;;;;;;14.45;1.83;;;6.70;99.90;;;;;;5029131;28;20111;-49
2022/01/21 11:48:55;;;;;;;17.10;2.42;;;6.70;99.90;;;;;;5049936;28;20053;-48
2022/01/21 11:54:37;;;;;;;17.02;2.97;;;6.80;99.90;;;;;;5007924;28;20133;-49
2022/01/21 11:57:11;;;;;;;19.98;3.50;;;6.80;99.90;;;;;;5005600;28;20050;-51
2022/01/21 12:02:35;;;;;;;18.08;2.30;;;6.80;99.90;;;;;;5011005;28;20042;-47
2022/01/21 12:05:07;;;;;;;17.00;3.03;;;6.80;99.90;;;;;;5008863;28;20538;-48
2022/01/21 12:07:41;;;;;;;15.45;2.83;;;6.80;99.90;;;;;;5007952;28;20136;-48
2022/01/21 12:10:13;;;;;;;13.63;2.45;;;6.80;99.90;;;;;;5009487;28;20050;-47
2022/01/21 12:12:56;;;;;;;17.40;4.30;;;6.80;99.90;;;;;;5007935;28;20046;-49
2022/01/21 12:18:36;;;;;;;13.20;3.13;;;6.60;99.90;;;;;;5008588;28;20783;-50
2022/01/21 12:21:26;;;;;;;17.95;3.25;;;6.60;99.90;;;;;;5006619;28;20046;-48
2022/01/21 12:23:52;;;;;;;20.15;2.80;;;6.60;99.90;;;;;;4982866;28;20051;-49
2022/01/21 12:26:41;;;;;;;17.40;4.07;;;6.60;99.90;;;;;;5004513;28;20068;-48
2022/01/21 12:29:13;;;;;;;21.70;3.60;;;6.60;99.90;;;;;;5006855;28;20133;-48
2022/01/21 12:34:26;;;;;;;16.88;3.70;;;6.70;99.90;;;;;;5008336;28;20053;-48
2022/01/21 12:36:53;;;;;;;16.33;3.35;;;6.80;99.90;;;;;;5009150;28;20046;-51
2022/01/21 12:39:35;;;;;;;24.55;3.35;;;6.80;99.90;;;;;;5009088;28;20136;-48
2022/01/21 12:42:19;;;;;;;14.68;3.22;;;6.80;99.90;;;;;;5004357;28;20100;-49
2022/01/21 12:44:46;;;;;;;19.45;3.80;;;6.80;99.90;;;;;;5003706;28;20046;-48
2022/01/21 12:47:43;;;;;;;19.02;3.15;;;6.80;99.90;;;;;;4990326;28;20061;-50
2022/01/21 12:50:44;;;;;;;17.85;2.80;;;6.80;99.90;;;;;;5007064;28;20112;-47
2022/01/21 12:53:24;;;;;;;13.98;3.35;;;6.70;99.90;;;;;;5032082;28;20589;-49
2022/01/21 12:55:59;;;;;;;20.08;3.53;;;6.70;99.90;;;;;;5028136;28;20044;-52
2022/01/21 12:58:41;;;;;;;16.90;3.13;;;6.70;99.90;;;;;;5046495;28;20063;-50
2022/01/21 13:01:10;;;;;;;19.40;3.33;;;6.70;99.90;;;;;;5010931;28;20534;-48
2022/01/21 13:04:21;;;;;;;21.77;3.40;;;6.70;99.90;;;;;;5026584;28;20522;-50
2022/01/21 13:07:10;;;;;;;24.45;3.22;;;6.70;99.90;;;;;;4966214;28;20440;-50
2022/01/21 13:10:09;;;;;;;21.00;4.45;;;6.60;99.90;;;;;;4949229;28;20201;-49
2022/01/21 13:15:55;;;;;;;20.08;4.07;;;6.60;99.90;;;;;;4955013;28;20054;-47
2022/01/21 13:18:31;;;;;;;20.23;3.10;;;6.60;99.90;;;;;;4951480;28;20070;-50
2022/01/21 13:21:00;;;;;;;17.38;3.35;;;6.60;99.90;;;;;;4970788;28;20552;-48
2022/01/21 13:23:35;;;;;;;18.13;2.97;;;6.60;99.90;;;;;;4969628;28;20493;-50
2022/01/21 13:26:12;;;;;;;26.98;3.95;;;6.60;99.90;;;;;;4945693;28;20087;-48
2022/01/21 13:29:01;;;;;;;14.35;3.03;;;6.50;99.90;;;;;;4951618;28;20130;-48
2022/01/21 13:31:50;;;;;;;23.60;4.05;;;6.50;99.90;;;;;;4959868;28;20094;-50
2022/01/21 13:34:26;;;;;;;24.73;3.97;;;6.60;99.90;;;;;;4957420;28;20169;-49
2022/01/21 13:37:00;;;;;;;23.58;3.92;;;6.60;99.90;;;;;;4978203;28;20140;-47
2022/01/21 13:39:41;;;;;;;20.77;3.88;;;6.60;99.90;;;;;;5024177;28;20356;-50
2022/01/21 13:42:17;;;;;;;14.95;3.00;;;6.60;99.90;;;;;;5044415;28;20041;-48
2022/01/21 13:44:57;;;;;;;19.60;3.72;;;6.60;99.90;;;;;;5042826;28;20057;-48
2022/01/21 13:47:25;;;;;;;28.55;3.90;;;6.70;99.90;;;;;;5039019;28;20674;-51
2022/01/21 13:49:52;;;;;;;21.45;4.18;;;6.70;99.90;;;;;;5046111;28;20068;-51
2022/01/21 13:52:18;;;;;;;25.02;3.60;;;6.70;99.90;;;;;;5043426;28;20052;-51
2022/01/21 13:54:47;;;;;;;25.02;4.68;;;6.60;99.90;;;;;;5043090;28;20052;-47
2022/01/21 13:57:14;;;;;;;25.70;3.65;;;6.60;99.90;;;;;;5044155;28;20182;-51
2022/01/21 13:59:42;;;;;;;19.10;3.25;;;6.60;99.90;;;;;;5042017;28;20099;-47
2022/01/21 14:02:12;;;;;;;21.63;3.80;;;6.60;99.90;;;;;;5042504;28;20052;-48
2022/01/21 14:04:38;;;;;;;22.77;3.17;;;6.60;99.90;;;;;;5038221;28;20072;-49